Time;durP1;ratioP1;P1;durP2;ratioP2;P2;SDS_P1;SDS_P2;PMS_P1;PMS_P2;Temp;Humidity;BMP_temperature;BMP_pressure;BME280_temperature;BME280_humidity;BME280_pressure;Samples;Min_cycle;Max_cycle;Signal;HPM_P1;HPM_P2
2022/04/19 00:00:33;;;;;;;6.05;3.00;;;11.40;92.50;;;;;;5069274;28;20060;-79
2022/04/19 00:03:02;;;;;;;6.50;2.75;;;11.30;92.60;;;;;;5064872;28;20044;-79
2022/04/19 00:05:32;;;;;;;3.85;2.78;;;11.30;92.70;;;;;;5086919;28;20060;-79
2022/04/19 00:08:06;;;;;;;4.70;3.05;;;11.30;92.60;;;;;;5060015;28;20540;-79
2022/04/19 00:10:34;;;;;;;5.25;3.47;;;11.30;92.60;;;;;;5053866;28;20378;-79
2022/04/19 00:13:04;;;;;;;3.67;2.25;;;11.30;92.60;;;;;;5085509;28;20052;-79
2022/04/19 00:15:32;;;;;;;4.32;2.40;;;11.30;92.60;;;;;;5062828;28;20435;-79
2022/04/19 00:18:02;;;;;;;4.20;2.35;;;11.30;92.60;;;;;;5063905;28;20032;-79
2022/04/19 00:20:30;;;;;;;7.28;3.15;;;11.30;92.70;;;;;;5073449;28;20126;-79
2022/04/19 00:22:58;;;;;;;7.57;2.63;;;11.30;92.80;;;;;;5047490;28;20047;-78
2022/04/19 00:25:26;;;;;;;5.03;2.33;;;11.30;92.80;;;;;;5075868;28;20398;-79
2022/04/19 00:27:53;;;;;;;4.38;2.00;;;11.30;92.80;;;;;;5069346;28;20089;-79
2022/04/19 00:30:21;;;;;;;4.95;2.25;;;11.20;92.60;;;;;;5045079;28;20478;-79
2022/04/19 00:32:49;;;;;;;4.25;3.15;;;11.10;92.80;;;;;;5065214;28;20047;-78
2022/04/19 00:35:16;;;;;;;4.50;2.28;;;11.20;92.90;;;;;;5074731;28;20044;-78
2022/04/19 00:37:44;;;;;;;15.02;2.78;;;11.20;92.90;;;;;;5081078;28;20040;-78
2022/04/19 00:40:11;;;;;;;4.22;2.83;;;11.20;92.80;;;;;;5079257;28;20055;-79
2022/04/19 00:42:39;;;;;;;5.50;2.08;;;11.20;93.00;;;;;;5044863;28;20096;-78
2022/04/19 00:45:07;;;;;;;4.72;2.65;;;11.20;92.90;;;;;;5047939;28;20108;-78
2022/04/19 00:47:36;;;;;;;6.10;2.70;;;11.20;92.70;;;;;;5080969;28;20146;-78
2022/04/19 00:50:07;;;;;;;5.10;2.63;;;11.10;92.70;;;;;;5062497;28;20068;-78
2022/04/19 00:52:37;;;;;;;5.32;2.55;;;11.10;92.80;;;;;;5058744;28;20506;-78
2022/04/19 00:55:07;;;;;;;6.50;2.20;;;11.10;92.90;;;;;;5067688;28;20055;-79
2022/04/19 00:57:41;;;;;;;4.78;2.42;;;11.00;92.90;;;;;;5050073;28;20043;-78
2022/04/19 01:00:12;;;;;;;7.53;2.33;;;10.90;93.10;;;;;;5047108;28;20534;-78
2022/04/19 01:02:54;;;;;;;5.07;2.35;;;10.80;93.20;;;;;;5071639;28;20043;-78
2022/04/19 01:05:24;;;;;;;3.00;2.17;;;10.70;93.20;;;;;;5061499;28;20139;-78
2022/04/19 01:07:53;;;;;;;3.58;1.95;;;10.80;93.20;;;;;;5060108;28;20055;-78
2022/04/19 01:10:26;;;;;;;3.58;2.53;;;10.70;93.20;;;;;;5084132;28;20048;-78
2022/04/19 01:15:41;;;;;;;5.35;2.33;;;10.70;93.20;;;;;;5080456;28;20490;-79
2022/04/19 01:18:12;;;;;;;7.22;2.60;;;10.70;93.20;;;;;;5065137;28;20457;-79
2022/04/19 01:20:42;;;;;;;5.28;2.50;;;10.60;93.00;;;;;;5037882;28;20049;-79
2022/04/19 01:23:19;;;;;;;6.00;3.38;;;10.60;93.40;;;;;;5065357;28;20500;-78
2022/04/19 01:25:48;;;;;;;7.50;2.45;;;10.40;93.50;;;;;;5062463;28;20044;-78
2022/04/19 01:28:19;;;;;;;4.65;2.13;;;10.50;93.80;;;;;;5059787;28;20513;-78
2022/04/19 01:30:52;;;;;;;5.60;2.70;;;10.40;94.00;;;;;;5059979;28;20036;-79
2022/04/19 01:33:22;;;;;;;4.50;2.47;;;10.40;94.10;;;;;;5046770;28;20040;-78
2022/04/19 01:35:51;;;;;;;5.53;2.40;;;10.40;94.20;;;;;;5035675;28;20404;-79
2022/04/19 01:38:18;;;;;;;5.68;2.72;;;10.30;94.40;;;;;;5058615;28;20040;-78
2022/04/19 01:40:47;;;;;;;6.85;2.80;;;10.40;94.60;;;;;;5059613;28;20135;-78
2022/04/19 01:43:44;;;;;;;6.10;2.47;;;10.30;94.90;;;;;;5028298;28;20040;-78
2022/04/19 01:46:15;;;;;;;5.60;3.10;;;10.30;95.10;;;;;;5054684;28;20563;-78
2022/04/19 01:48:42;;;;;;;4.72;3.15;;;10.20;95.50;;;;;;5053726;28;20098;-77
2022/04/19 01:51:12;;;;;;;4.93;2.42;;;10.20;95.70;;;;;;5061346;28;20052;-77
2022/04/19 01:53:40;;;;;;;6.70;2.75;;;10.20;95.80;;;;;;5042532;28;20067;-77
2022/04/19 01:56:08;;;;;;;6.38;3.13;;;10.20;96.00;;;;;;5058678;28;20049;-78
2022/04/19 01:59:12;;;;;;;9.00;3.90;;;10.20;96.00;;;;;;4986247;28;20534;-79
2022/04/19 02:02:04;;;;;;;3.65;2.58;;;10.20;96.10;;;;;;5034816;28;20057;-78
2022/04/19 02:04:32;;;;;;;5.75;2.63;;;10.30;96.30;;;;;;5064318;28;20502;-78
2022/04/19 02:07:00;;;;;;;6.97;2.50;;;10.20;96.40;;;;;;5032798;28;20061;-78
2022/04/19 02:09:27;;;;;;;5.28;3.25;;;10.20;96.50;;;;;;5016670;28;20071;-79
2022/04/19 02:11:56;;;;;;;5.30;2.55;;;10.20;96.70;;;;;;5032565;28;20057;-78
2022/04/19 02:14:44;;;;;;;6.25;3.00;;;10.20;96.70;;;;;;5049228;28;20491;-78
2022/04/19 02:17:15;;;;;;;4.07;2.70;;;10.20;96.90;;;;;;5050563;28;20569;-79
2022/04/19 02:19:42;;;;;;;7.93;3.50;;;10.30;96.80;;;;;;5033134;28;20099;-78
2022/04/19 02:22:10;;;;;;;4.68;2.63;;;10.30;96.70;;;;;;5015973;28;20398;-79
2022/04/19 02:24:38;;;;;;;6.55;3.25;;;10.20;96.50;;;;;;5023772;28;20129;-78
2022/04/19 02:27:06;;;;;;;7.35;2.75;;;10.20;96.60;;;;;;5069490;28;20063;-78
2022/04/19 02:29:34;;;;;;;8.15;3.10;;;10.10;97.00;;;;;;5052426;28;20047;-79
2022/04/19 02:32:02;;;;;;;3.55;2.60;;;10.10;96.80;;;;;;5068925;28;20044;-79
2022/04/19 02:34:29;;;;;;;4.20;2.70;;;10.10;96.80;;;;;;5052679;28;20044;-78
2022/04/19 02:36:57;;;;;;;4.35;2.53;;;10.10;96.80;;;;;;5035271;28;20395;-78
2022/04/19 02:39:28;;;;;;;6.10;3.03;;;10.10;97.00;;;;;;5052398;28;20048;-79
2022/04/19 02:41:56;;;;;;;4.22;2.20;;;10.00;96.90;;;;;;5052396;28;20056;-78
2022/04/19 02:44:24;;;;;;;4.00;3.00;;;10.00;97.10;;;;;;5052416;28;20418;-78
2022/04/19 02:47:12;;;;;;;4.57;2.70;;;9.90;97.30;;;;;;5070018;28;20076;-78
2022/04/19 02:49:45;;;;;;;4.50;2.58;;;9.80;97.50;;;;;;5052362;28;20056;-79
2022/04/19 02:52:14;;;;;;;4.65;3.00;;;9.80;97.70;;;;;;5069400;28;20816;-78
2022/04/19 02:54:41;;;;;;;5.38;3.53;;;9.80;97.60;;;;;;5052448;28;20128;-79
2022/04/19 02:57:09;;;;;;;4.90;3.10;;;9.80;97.70;;;;;;5068912;28;20090;-78
2022/04/19 02:59:37;;;;;;;11.50;4.50;;;9.80;97.90;;;;;;5052316;28;20059;-79
2022/04/19 03:02:05;;;;;;;7.25;3.60;;;9.80;98.00;;;;;;5048048;28;20439;-80
2022/04/19 03:04:33;;;;;;;4.28;2.97;;;9.90;97.80;;;;;;5015489;28;20057;-78
2022/04/19 03:07:01;;;;;;;10.73;3.25;;;10.00;97.70;;;;;;5032761;28;20135;-79
2022/04/19 03:09:29;;;;;;;5.25;3.28;;;10.00;97.60;;;;;;5032206;28;20068;-79
2022/04/19 03:11:57;;;;;;;4.88;2.80;;;10.00;97.60;;;;;;5048570;28;20056;-78
2022/04/19 03:14:25;;;;;;;4.85;3.08;;;10.00;97.50;;;;;;5049126;28;20045;-78
2022/04/19 03:16:53;;;;;;;6.90;3.13;;;10.00;97.50;;;;;;5048555;28;20045;-79
2022/04/19 03:19:21;;;;;;;4.95;2.90;;;10.00;97.90;;;;;;5032000;28;20041;-78
2022/04/19 03:21:48;;;;;;;7.50;2.88;;;10.00;97.90;;;;;;5048353;28;20406;-78
2022/04/19 03:29:49;;;;;;;7.18;3.30;;;10.00;98.00;;;;;;5068751;28;20048;-78
2022/04/19 03:32:19;;;;;;;5.93;3.20;;;10.00;97.90;;;;;;5051848;28;20532;-78
2022/04/19 03:34:47;;;;;;;7.53;3.38;;;10.00;97.90;;;;;;5051681;28;20061;-79
2022/04/19 03:37:15;;;;;;;6.60;3.35;;;9.90;97.80;;;;;;5035722;28;20075;-78
2022/04/19 03:39:43;;;;;;;4.18;2.67;;;10.00;97.90;;;;;;5068462;28;20044;-78
2022/04/19 03:42:11;;;;;;;5.80;3.33;;;9.90;97.90;;;;;;5052003;28;20095;-78
2022/04/19 03:44:38;;;;;;;4.07;2.80;;;9.90;97.90;;;;;;5035411;28;20049;-78
2022/04/19 03:47:07;;;;;;;4.93;2.80;;;10.00;97.90;;;;;;5052099;28;20549;-79
2022/04/19 03:49:37;;;;;;;5.38;3.05;;;9.90;97.80;;;;;;5039292;28;20055;-79
2022/04/19 03:52:07;;;;;;;4.30;3.08;;;9.90;97.80;;;;;;5056013;28;20053;-78
2022/04/19 03:54:37;;;;;;;6.38;3.13;;;9.90;97.90;;;;;;5038549;28;20083;-79
2022/04/19 03:57:07;;;;;;;6.25;3.20;;;10.00;97.70;;;;;;5055142;28;20514;-79
2022/04/19 03:59:38;;;;;;;6.55;3.88;;;9.90;97.70;;;;;;5039440;28;20094;-79
2022/04/19 04:02:07;;;;;;;9.70;2.90;;;9.90;97.70;;;;;;5055291;28;20777;-79
2022/04/19 04:04:36;;;;;;;5.70;2.88;;;9.80;97.60;;;;;;5055661;28;20063;-79
2022/04/19 04:07:06;;;;;;;6.03;3.03;;;9.80;97.50;;;;;;5055493;28;20662;-78
2022/04/19 04:09:36;;;;;;;5.05;2.78;;;9.70;97.50;;;;;;5055094;28;20044;-78
2022/04/19 04:12:14;;;;;;;3.90;2.70;;;9.80;97.40;;;;;;5071518;28;20068;-80
2022/04/19 04:14:45;;;;;;;4.03;2.78;;;9.80;97.50;;;;;;5051186;28;20568;-78
2022/04/19 04:17:13;;;;;;;5.05;3.05;;;9.80;97.30;;;;;;5033771;28;20056;-78
2022/04/19 04:19:43;;;;;;;4.50;2.85;;;9.80;97.30;;;;;;5045955;28;20040;-78
2022/04/19 04:22:16;;;;;;;7.30;3.15;;;9.80;97.10;;;;;;5060606;28;20101;-78
2022/04/19 04:24:45;;;;;;;6.10;3.03;;;9.70;97.30;;;;;;5066941;28;20051;-78
2022/04/19 04:27:13;;;;;;;7.85;3.50;;;9.70;97.30;;;;;;5079743;28;20044;-78
2022/04/19 04:29:41;;;;;;;5.57;3.35;;;9.70;97.20;;;;;;5056896;28;20131;-78
2022/04/19 04:32:10;;;;;;;3.67;2.58;;;9.70;97.40;;;;;;5080384;28;20048;-78
2022/04/19 04:34:38;;;;;;;5.18;2.78;;;9.80;97.20;;;;;;5058885;28;20040;-78
2022/04/19 04:37:08;;;;;;;6.80;2.85;;;9.80;97.10;;;;;;5077355;28;20048;-78
2022/04/19 04:39:42;;;;;;;5.53;3.05;;;9.90;97.00;;;;;;5073819;28;20033;-78
2022/04/19 04:42:25;;;;;;;6.70;3.40;;;10.00;96.80;;;;;;5074748;28;20094;-78
2022/04/19 04:44:59;;;;;;;8.57;2.95;;;10.20;96.80;;;;;;5049626;28;20071;-79
2022/04/19 04:50:13;;;;;;;10.68;4.55;;;10.40;96.50;;;;;;5082080;28;20047;-79
2022/04/19 04:52:41;;;;;;;5.72;2.92;;;10.60;96.30;;;;;;5064762;28;20059;-78
2022/04/19 04:55:09;;;;;;;5.13;3.10;;;10.80;96.10;;;;;;5032990;28;20468;-79
2022/04/19 04:57:38;;;;;;;10.95;3.13;;;10.90;96.00;;;;;;5060090;28;20040;-79
2022/04/19 05:00:06;;;;;;;4.70;3.17;;;11.00;95.70;;;;;;5063595;28;20048;-78
2022/04/19 05:02:52;;;;;;;4.65;2.50;;;11.10;95.70;;;;;;5067397;28;20066;-78
2022/04/19 05:05:20;;;;;;;4.68;2.60;;;11.10;95.70;;;;;;5053754;28;20056;-78
2022/04/19 05:07:51;;;;;;;4.55;2.58;;;11.10;95.80;;;;;;5070273;28;20052;-78
2022/04/19 05:10:19;;;;;;;6.40;3.15;;;11.20;95.90;;;;;;5070485;28;20201;-78
2022/04/19 05:12:47;;;;;;;5.68;3.08;;;11.30;95.90;;;;;;5054195;28;20044;-78
2022/04/19 05:15:20;;;;;;;7.40;4.22;;;11.40;95.80;;;;;;5054896;28;20048;-78
2022/04/19 05:17:49;;;;;;;4.05;3.33;;;11.60;95.80;;;;;;5053756;28;20414;-78
2022/04/19 05:20:17;;;;;;;5.43;2.58;;;11.70;95.60;;;;;;5053776;28;20158;-79
2022/04/19 05:22:46;;;;;;;5.18;3.75;;;11.80;95.50;;;;;;5053937;28;20123;-78
2022/04/19 05:25:15;;;;;;;4.20;2.70;;;11.80;95.40;;;;;;5036990;28;20457;-78
2022/04/19 05:27:43;;;;;;;4.80;3.33;;;11.90;95.40;;;;;;5036629;28;20062;-79
2022/04/19 05:30:11;;;;;;;6.45;3.42;;;11.80;95.20;;;;;;5054158;28;20148;-79
2022/04/19 05:32:38;;;;;;;4.28;2.80;;;11.80;95.30;;;;;;5036126;28;20050;-79
2022/04/19 05:35:07;;;;;;;7.03;3.40;;;11.80;95.60;;;;;;5070803;28;20184;-79
2022/04/19 05:37:38;;;;;;;4.75;3.45;;;11.90;95.60;;;;;;5053550;28;20044;-79
2022/04/19 05:40:07;;;;;;;6.15;3.30;;;11.90;95.60;;;;;;5053130;28;20802;-79
2022/04/19 05:42:38;;;;;;;7.25;3.03;;;11.90;95.60;;;;;;5070099;28;20375;-79
2022/04/19 05:45:07;;;;;;;3.92;2.85;;;12.00;95.60;;;;;;5053518;28;20097;-79
2022/04/19 05:47:35;;;;;;;5.10;2.95;;;12.10;95.40;;;;;;5052979;28;20044;-79
2022/04/19 05:50:03;;;;;;;18.10;3.38;;;12.20;95.50;;;;;;5024403;28;20064;-79
2022/04/19 05:52:31;;;;;;;4.55;3.03;;;12.30;95.40;;;;;;5016905;28;20083;-79
2022/04/19 05:54:59;;;;;;;5.20;2.55;;;12.50;95.30;;;;;;5049115;28;20083;-79
2022/04/19 05:57:27;;;;;;;5.72;3.28;;;12.60;95.20;;;;;;5033041;28;20049;-79
2022/04/19 05:59:55;;;;;;;6.15;2.80;;;12.70;95.00;;;;;;5049857;28;20040;-79
2022/04/19 06:05:09;;;;;;;4.30;3.35;;;12.90;94.90;;;;;;5033425;28;20147;-79
2022/04/19 06:07:47;;;;;;;5.88;3.25;;;12.90;94.80;;;;;;5032789;28;20041;-79
2022/04/19 06:10:15;;;;;;;5.63;3.30;;;12.90;94.80;;;;;;5032686;28;20072;-79
2022/04/19 06:12:47;;;;;;;5.28;3.45;;;12.90;94.80;;;;;;5049149;28;20492;-79
2022/04/19 06:15:16;;;;;;;6.00;3.35;;;12.90;94.90;;;;;;5049274;28;20458;-78
2022/04/19 06:17:45;;;;;;;4.22;3.22;;;12.90;95.00;;;;;;5049054;28;20510;-78
2022/04/19 06:20:31;;;;;;;9.75;3.97;;;13.00;95.10;;;;;;5049204;28;20048;-78
2022/04/19 06:22:59;;;;;;;7.32;3.60;;;13.20;95.00;;;;;;5049198;28;20045;-78
2022/04/19 06:25:27;;;;;;;6.05;3.55;;;13.40;95.00;;;;;;5048606;28;20041;-79
2022/04/19 06:27:56;;;;;;;5.53;3.08;;;13.50;94.60;;;;;;5033195;28;20048;-79
2022/04/19 06:30:26;;;;;;;4.35;2.72;;;13.70;94.50;;;;;;5032702;28;20424;-78
2022/04/19 06:32:54;;;;;;;4.40;3.00;;;13.70;94.20;;;;;;5031732;28;20044;-78
2022/04/19 06:35:24;;;;;;;6.75;3.15;;;13.90;94.10;;;;;;5032639;28;20132;-79
2022/04/19 06:37:51;;;;;;;7.93;3.28;;;13.90;94.00;;;;;;5032630;28;20502;-78
2022/04/19 06:40:19;;;;;;;8.07;4.35;;;14.00;93.80;;;;;;5034436;28;20044;-79
2022/04/19 06:42:48;;;;;;;5.82;3.78;;;14.20;93.50;;;;;;5048954;28;20204;-80
2022/04/19 06:45:19;;;;;;;6.13;3.97;;;14.50;93.20;;;;;;5048986;28;20138;-80
2022/04/19 06:48:02;;;;;;;5.93;3.50;;;14.70;92.90;;;;;;5017248;28;20052;-79
2022/04/19 06:50:33;;;;;;;6.32;3.20;;;15.00;92.60;;;;;;5049091;28;20059;-78
2022/04/19 06:53:07;;;;;;;4.43;3.35;;;15.10;92.60;;;;;;5049080;28;20037;-78
2022/04/19 06:55:53;;;;;;;7.50;3.60;;;15.20;92.30;;;;;;5048696;28;20056;-79
2022/04/19 06:58:21;;;;;;;7.10;4.38;;;15.40;92.10;;;;;;5048894;28;20052;-78
2022/04/19 07:00:50;;;;;;;5.53;3.20;;;15.50;91.80;;;;;;5032273;28;20059;-80
2022/04/19 07:03:18;;;;;;;4.43;3.15;;;15.60;92.00;;;;;;5048987;28;20857;-79
2022/04/19 07:06:06;;;;;;;5.43;3.60;;;15.60;91.40;;;;;;5048071;28;20102;-85
2022/04/19 07:08:34;;;;;;;4.70;2.85;;;15.70;91.40;;;;;;5031905;28;20102;-80
2022/04/19 07:11:03;;;;;;;4.47;3.10;;;15.60;91.40;;;;;;5032157;28;20381;-78
2022/04/19 07:13:49;;;;;;;5.55;3.20;;;15.80;91.30;;;;;;5032494;28;20198;-77
2022/04/19 07:16:42;;;;;;;6.30;2.58;;;16.00;91.10;;;;;;5035019;28;20052;-78
2022/04/19 07:19:10;;;;;;;5.60;3.13;;;16.20;90.60;;;;;;5032106;28;20140;-78
2022/04/19 07:27:33;;;;;;;5.93;3.20;;;16.90;88.20;;;;;;5051960;28;20438;-78
2022/04/19 07:30:01;;;;;;;6.45;2.83;;;17.10;87.70;;;;;;5019408;28;20060;-80
2022/04/19 07:32:28;;;;;;;5.18;2.47;;;17.30;87.60;;;;;;5039583;28;20040;-78
2022/04/19 07:35:17;;;;;;;5.68;3.35;;;17.60;87.00;;;;;;5071384;28;20059;-79
2022/04/19 07:37:45;;;;;;;4.43;2.47;;;17.80;85.60;;;;;;5055089;28;20056;-78
2022/04/19 07:40:13;;;;;;;4.00;2.05;;;17.80;84.90;;;;;;5055852;28;20057;-78
2022/04/19 07:42:41;;;;;;;4.15;2.33;;;17.70;82.50;;;;;;5038674;28;20053;-79
2022/04/19 07:45:09;;;;;;;4.97;2.15;;;17.70;81.90;;;;;;5071067;28;20048;-84
2022/04/19 07:47:37;;;;;;;3.55;2.22;;;17.70;81.30;;;;;;5038576;28;20087;-79
2022/04/19 07:50:05;;;;;;;6.65;2.20;;;17.80;80.90;;;;;;5039059;28;20406;-79
2022/04/19 07:52:35;;;;;;;3.80;2.28;;;17.90;80.80;;;;;;5038561;28;20060;-78
2022/04/19 07:55:03;;;;;;;4.00;1.77;;;18.10;80.40;;;;;;5071584;28;20573;-79
2022/04/19 07:57:31;;;;;;;5.88;2.00;;;18.00;79.70;;;;;;5038816;28;20571;-78
2022/04/19 08:00:00;;;;;;;3.88;1.92;;;18.00;79.10;;;;;;5054715;28;20101;-79
2022/04/19 08:02:42;;;;;;;4.63;2.40;;;17.90;79.10;;;;;;5071580;28;20040;-79
2022/04/19 08:05:15;;;;;;;3.13;1.80;;;17.90;79.50;;;;;;5026361;28;20495;-79
2022/04/19 08:07:43;;;;;;;4.22;2.30;;;17.90;80.10;;;;;;5034662;28;20045;-78
2022/04/19 08:10:12;;;;;;;4.72;2.70;;;17.90;80.00;;;;;;5034772;28;20501;-79
2022/04/19 08:12:40;;;;;;;3.35;2.10;;;18.00;78.60;;;;;;5034702;28;20116;-78
2022/04/19 08:15:09;;;;;;;3.45;1.92;;;18.00;77.60;;;;;;5051100;28;20126;-79
2022/04/19 08:17:37;;;;;;;4.18;2.60;;;18.20;76.40;;;;;;5051333;28;20045;-78
2022/04/19 08:20:07;;;;;;;4.60;2.17;;;18.20;76.40;;;;;;5034871;28;20408;-79
2022/04/19 08:22:37;;;;;;;5.70;2.40;;;18.40;76.90;;;;;;5051515;28;20510;-79
2022/04/19 08:25:10;;;;;;;3.67;2.90;;;18.60;75.80;;;;;;5051110;28;20137;-78
2022/04/19 08:27:45;;;;;;;3.65;2.13;;;18.70;75.20;;;;;;5034812;28;20694;-79
2022/04/19 08:30:18;;;;;;;3.53;2.08;;;18.70;74.40;;;;;;5047390;28;20042;-79
2022/04/19 08:32:48;;;;;;;10.10;3.38;;;18.80;74.30;;;;;;4998749;28;20107;-78
2022/04/19 08:35:17;;;;;;;30.02;14.15;;;18.80;73.40;;;;;;5030856;28;20049;-78
2022/04/19 08:37:46;;;;;;;10.43;6.18;;;19.00;74.20;;;;;;5030973;28;20037;-80
2022/04/19 08:40:16;;;;;;;7.03;3.40;;;19.00;74.00;;;;;;5030433;28;20099;-79
2022/04/19 08:42:47;;;;;;;7.10;2.92;;;18.90;74.10;;;;;;4998647;28;20563;-78
2022/04/19 08:45:16;;;;;;;5.05;2.50;;;18.70;74.00;;;;;;5031158;28;20401;-79
2022/04/19 08:47:45;;;;;;;5.15;2.63;;;18.50;73.40;;;;;;5030970;28;20047;-78
2022/04/19 08:50:18;;;;;;;5.65;3.03;;;18.40;73.40;;;;;;5030859;28;20038;-78
2022/04/19 08:52:47;;;;;;;3.45;2.00;;;18.40;72.20;;;;;;4998449;28;20131;-79
2022/04/19 08:58:04;;;;;;;3.85;2.20;;;18.70;70.50;;;;;;5014327;28;20053;-79
2022/04/19 09:00:32;;;;;;;5.50;2.15;;;19.00;68.10;;;;;;5014625;28;20042;-79
2022/04/19 09:03:01;;;;;;;4.03;2.47;;;18.80;70.70;;;;;;5046960;28;20044;-79
2022/04/19 09:05:29;;;;;;;5.47;1.92;;;18.50;71.40;;;;;;5057244;28;20852;-78
2022/04/19 09:07:58;;;;;;;3.95;2.10;;;18.30;72.00;;;;;;5036718;28;20094;-78
2022/04/19 09:10:31;;;;;;;4.00;2.10;;;18.30;72.70;;;;;;5053960;28;20040;-79
2022/04/19 09:13:00;;;;;;;3.08;1.80;;;18.30;72.30;;;;;;5053717;28;20123;-78
2022/04/19 09:15:39;;;;;;;5.35;1.85;;;18.30;72.80;;;;;;5071597;28;20135;-78
2022/04/19 09:18:20;;;;;;;5.80;2.33;;;18.50;71.60;;;;;;5036939;28;20103;-78
2022/04/19 09:20:51;;;;;;;2.47;1.58;;;18.70;70.90;;;;;;5044210;28;20051;-78
2022/04/19 09:23:20;;;;;;;4.25;2.20;;;18.70;71.80;;;;;;5036609;28;20057;-78
2022/04/19 09:26:05;;;;;;;3.78;2.00;;;18.60;72.30;;;;;;5053403;28;20481;-79
2022/04/19 09:28:38;;;;;;;2.58;1.60;;;18.40;71.80;;;;;;5053388;28;20129;-78
2022/04/19 09:31:13;;;;;;;2.38;1.58;;;18.30;71.20;;;;;;5037093;28;20516;-79
2022/04/19 09:33:41;;;;;;;3.42;2.00;;;18.40;70.70;;;;;;5037135;28;20052;-79
2022/04/19 09:36:08;;;;;;;4.57;1.90;;;18.70;72.00;;;;;;5036419;28;20040;-79
2022/04/19 09:38:43;;;;;;;3.20;2.25;;;18.80;72.00;;;;;;5052778;28;20052;-78
2022/04/19 09:41:14;;;;;;;3.88;2.15;;;18.70;71.60;;;;;;5052898;28;20048;-78
2022/04/19 09:44:09;;;;;;;4.97;2.22;;;18.50;71.50;;;;;;5053025;28;20154;-79
2022/04/19 09:46:38;;;;;;;4.10;1.90;;;18.60;71.40;;;;;;5052329;28;20749;-79
2022/04/19 09:49:06;;;;;;;4.90;1.95;;;18.70;71.60;;;;;;5036497;28;20398;-80
2022/04/19 09:51:35;;;;;;;3.15;1.77;;;18.80;70.70;;;;;;5052857;28;20063;-78
2022/04/19 09:54:04;;;;;;;3.75;1.77;;;19.00;70.20;;;;;;5052683;28;20048;-78
2022/04/19 09:56:36;;;;;;;3.60;1.50;;;19.10;69.50;;;;;;5053335;28;20048;-78
2022/04/19 09:59:15;;;;;;;3.35;1.98;;;19.10;69.50;;;;;;5036289;28;20049;-79
2022/04/19 10:10:06;;;;;;;3.90;2.25;;;18.60;68.70;;;;;;5036564;28;20396;-79
2022/04/19 10:12:35;;;;;;;4.20;1.60;;;18.60;68.70;;;;;;5070352;28;20051;-79
2022/04/19 10:15:06;;;;;;;2.15;1.40;;;18.60;68.60;;;;;;5035761;28;20135;-78
2022/04/19 10:17:36;;;;;;;2.72;1.48;;;18.70;69.40;;;;;;5043439;28;20109;-78
2022/04/19 10:20:05;;;;;;;4.32;2.22;;;18.80;68.60;;;;;;5056292;28;20125;-78
2022/04/19 10:22:33;;;;;;;3.92;1.92;;;18.80;69.00;;;;;;5056397;28;20059;-78
2022/04/19 10:25:10;;;;;;;2.50;1.90;;;18.70;67.80;;;;;;5055496;28;20044;-77
2022/04/19 10:27:37;;;;;;;;;;;18.80;67.80;;;;;;5091158;28;20116;-79
2022/04/19 10:30:06;;;;;;;4.68;2.00;;;19.00;66.90;;;;;;5056350;28;19981;-78
2022/04/19 10:32:34;;;;;;;6.03;2.38;;;19.00;66.10;;;;;;5072600;28;20036;-78
2022/04/19 10:35:06;;;;;;;5.38;2.47;;;19.00;65.80;;;;;;5090526;28;20076;-79
2022/04/19 10:37:33;;;;;;;5.88;2.40;;;19.10;65.50;;;;;;5073237;28;20436;-79
2022/04/19 10:40:06;;;;;;;3.20;1.90;;;19.00;65.00;;;;;;5055448;28;20068;-78
2022/04/19 10:42:38;;;;;;;4.28;2.58;;;19.10;65.00;;;;;;5072521;28;20071;-78
2022/04/19 10:45:15;;;;;;;5.30;2.00;;;18.80;65.20;;;;;;5039682;28;20105;-77
2022/04/19 10:47:51;;;;;;;4.72;2.33;;;18.80;65.50;;;;;;5072318;28;20070;-79
2022/04/19 10:50:36;;;;;;;3.05;1.90;;;18.80;65.30;;;;;;5072562;28;20161;-79
2022/04/19 10:53:11;;;;;;;3.15;1.88;;;18.60;64.30;;;;;;5055906;28;20052;-79
2022/04/19 10:56:02;;;;;;;3.23;2.17;;;18.50;63.20;;;;;;5055736;28;20096;-79
2022/04/19 10:58:44;;;;;;;3.45;1.88;;;18.60;63.90;;;;;;5059038;28;20054;-79
2022/04/19 11:01:30;;;;;;;6.70;4.13;;;18.40;63.80;;;;;;5076618;28;20048;-79
2022/04/19 11:03:58;;;;;;;6.40;4.43;;;18.60;65.00;;;;;;5076432;28;20040;-78
2022/04/19 11:06:40;;;;;;;3.42;2.22;;;18.70;64.70;;;;;;5074934;28;20058;-78
2022/04/19 11:09:23;;;;;;;2.70;1.60;;;18.70;64.00;;;;;;5039484;28;20048;-80
2022/04/19 11:11:52;;;;;;;4.05;2.00;;;18.70;64.10;;;;;;5039724;28;20061;-80
2022/04/19 11:14:35;;;;;;;2.88;1.50;;;18.60;63.30;;;;;;5039423;28;20099;-79
2022/04/19 11:17:22;;;;;;;3.05;2.10;;;18.60;63.60;;;;;;5039412;28;20488;-77
2022/04/19 11:20:09;;;;;;;3.25;1.90;;;18.60;65.00;;;;;;5057572;28;20067;-77
2022/04/19 11:22:49;;;;;;;2.80;2.03;;;18.50;64.10;;;;;;5039766;28;20045;-77
2022/04/19 11:25:45;;;;;;;3.00;2.00;;;18.50;65.20;;;;;;5039557;28;20052;-77
2022/04/19 11:28:14;;;;;;;3.78;1.80;;;18.60;65.00;;;;;;5055812;28;20803;-79
2022/04/19 11:30:49;;;;;;;2.83;1.75;;;18.80;65.20;;;;;;5073967;28;20048;-78
2022/04/19 11:33:25;;;;;;;4.90;2.30;;;18.80;65.20;;;;;;5039438;28;20090;-78
2022/04/19 11:36:10;;;;;;;3.03;2.03;;;18.90;65.60;;;;;;5039144;28;20055;-78
2022/04/19 11:38:50;;;;;;;3.55;1.63;;;18.80;64.40;;;;;;5055808;28;20453;-79
2022/04/19 11:47:00;;;;;;;3.55;1.60;;;18.90;64.10;;;;;;5073198;28;20045;-78
2022/04/19 11:49:34;;;;;;;5.95;1.90;;;18.90;64.10;;;;;;5038463;28;20052;-78
2022/04/19 11:52:12;;;;;;;2.83;1.60;;;18.80;65.30;;;;;;5038786;28;20502;-78
2022/04/19 11:54:40;;;;;;;3.80;2.05;;;18.80;65.40;;;;;;5038703;28;20044;-78
2022/04/19 11:57:12;;;;;;;2.55;1.48;;;18.80;65.10;;;;;;5092233;28;20047;-78
2022/04/19 11:59:42;;;;;;;4.57;1.95;;;18.80;65.30;;;;;;5058494;28;20143;-78
2022/04/19 12:02:18;;;;;;;2.85;1.38;;;18.80;65.70;;;;;;5058427;28;20237;-78
2022/04/19 12:04:50;;;;;;;;;;;18.70;66.00;;;;;;5038832;28;20060;-78
2022/04/19 12:07:17;;;;;;;3.35;1.85;;;18.60;66.40;;;;;;5055676;28;20370;-78
2022/04/19 12:09:46;;;;;;;4.32;2.20;;;18.60;66.30;;;;;;5054388;28;20048;-77
2022/04/19 12:12:15;;;;;;;2.97;1.63;;;18.70;66.80;;;;;;5038747;28;20048;-78
2022/04/19 12:14:50;;;;;;;6.95;2.13;;;18.60;66.30;;;;;;5055539;28;20048;-78
2022/04/19 12:17:22;;;;;;;3.45;1.80;;;18.60;67.70;;;;;;5039101;28;20143;-78
2022/04/19 12:20:00;;;;;;;4.25;1.70;;;18.50;67.20;;;;;;5072442;28;20076;-72
2022/04/19 12:22:32;;;;;;;3.13;2.00;;;18.40;67.80;;;;;;5055089;28;20049;-72
2022/04/19 12:25:02;;;;;;;6.97;2.10;;;18.40;68.60;;;;;;5037832;28;20395;-72
2022/04/19 12:27:35;;;;;;;3.60;1.83;;;18.40;67.80;;;;;;5055273;28;20105;-72
2022/04/19 12:30:08;;;;;;;1.95;1.33;;;18.50;66.60;;;;;;5071784;28;20078;-72
2022/04/19 12:32:59;;;;;;;3.78;2.00;;;18.40;66.30;;;;;;5055297;28;20139;-73
2022/04/19 12:35:34;;;;;;;3.17;2.20;;;18.30;66.30;;;;;;5053855;28;20445;-74
2022/04/19 12:38:16;;;;;;;4.45;2.03;;;18.40;66.40;;;;;;5070282;28;20036;-73
2022/04/19 12:40:46;;;;;;;2.60;1.60;;;18.40;66.30;;;;;;5070459;28;20088;-73
2022/04/19 12:43:15;;;;;;;3.83;2.00;;;18.40;68.00;;;;;;5054085;28;20490;-73
2022/04/19 12:45:45;;;;;;;2.90;1.70;;;18.30;69.40;;;;;;5070448;28;20048;-73
2022/04/19 12:48:21;;;;;;;2.90;1.38;;;18.30;69.70;;;;;;5071157;28;20055;-74
2022/04/19 12:51:03;;;;;;;5.97;1.88;;;18.30;69.70;;;;;;5052320;28;20056;-73
2022/04/19 12:53:33;;;;;;;3.55;1.83;;;18.30;69.50;;;;;;5053998;28;20152;-73
2022/04/19 12:56:11;;;;;;;2.45;1.75;;;18.20;69.50;;;;;;5050560;28;20071;-73
2022/04/19 12:58:46;;;;;;;3.40;1.60;;;17.90;69.30;;;;;;5033813;28;20496;-73
2022/04/19 13:01:14;;;;;;;3.17;1.70;;;17.70;70.30;;;;;;5049668;28;20049;-72
2022/04/19 13:03:42;;;;;;;3.83;1.75;;;17.80;70.40;;;;;;5017466;28;20056;-73
2022/04/19 13:14:29;;;;;;;2.90;1.55;;;17.30;71.40;;;;;;5050084;28;20148;-72
2022/04/19 13:16:57;;;;;;;3.75;1.70;;;17.30;71.70;;;;;;5049407;28;20388;-73
2022/04/19 13:19:25;;;;;;;2.85;1.60;;;17.40;72.30;;;;;;5050464;28;20556;-72
2022/04/19 13:21:54;;;;;;;5.00;1.73;;;17.40;71.60;;;;;;5049151;28;20045;-73
2022/04/19 13:24:22;;;;;;;2.53;1.83;;;17.50;72.30;;;;;;5033437;28;20045;-73
2022/04/19 13:26:50;;;;;;;2.67;1.42;;;17.50;72.10;;;;;;5049629;28;20053;-73
2022/04/19 13:29:18;;;;;;;3.67;1.77;;;17.60;72.30;;;;;;5049714;28;20047;-73
2022/04/19 13:31:46;;;;;;;9.13;2.35;;;17.50;72.10;;;;;;5016700;28;20041;-75
2022/04/19 13:34:13;;;;;;;3.42;2.17;;;17.60;72.10;;;;;;5049633;28;20059;-73
2022/04/19 13:36:43;;;;;;;3.85;2.00;;;17.60;71.70;;;;;;5033318;28;20053;-73
2022/04/19 13:39:11;;;;;;;3.20;1.73;;;17.60;71.40;;;;;;5032915;28;20048;-72
2022/04/19 13:41:41;;;;;;;4.78;1.80;;;17.70;72.10;;;;;;5050605;28;20049;-73
2022/04/19 13:44:10;;;;;;;3.40;1.60;;;17.60;72.20;;;;;;5052914;28;20059;-72
2022/04/19 13:46:40;;;;;;;3.80;1.80;;;17.50;72.80;;;;;;5069284;28;20044;-74
2022/04/19 13:49:12;;;;;;;3.15;2.10;;;17.50;73.10;;;;;;5069777;28;20395;-72
2022/04/19 13:51:42;;;;;;;6.57;2.40;;;17.60;72.90;;;;;;5070163;28;20418;-73
2022/04/19 13:54:10;;;;;;;2.65;1.95;;;17.60;72.50;;;;;;5070309;28;20044;-71